sensor_id;sensor_type;location;lat;lon;timestamp;temperature;humidity
10296;DHT22;5193;51.032;6.356;2024-01-30T00:00:41;6.60;99.90
10296;DHT22;5193;51.032;6.356;2024-01-30T00:03:10;6.60;99.90
10296;DHT22;5193;51.032;6.356;2024-01-30T00:05:35;6.60;99.90
10296;DHT22;5193;51.032;6.356;2024-01-30T00:08:01;6.50;99.90
10296;DHT22;5193;51.032;6.356;2024-01-30T00:10:26;6.50;99.90
10296;DHT22;5193;51.032;6.356;2024-01-30T00:12:52;6.40;99.90
10296;DHT22;5193;51.032;6.356;2024-01-30T00:15:18;6.40;99.90
10296;DHT22;5193;51.032;6.356;2024-01-30T00:17:45;6.30;99.90
10296;DHT22;5193;51.032;6.356;2024-01-30T00:20:11;6.30;99.90
10296;DHT22;5193;51.032;6.356;2024-01-30T00:22:36;6.30;99.90
10296;DHT22;5193;51.032;6.356;2024-01-30T00:25:02;6.30;99.90
10296;DHT22;5193;51.032;6.356;2024-01-30T00:27:28;6.20;99.90
10296;DHT22;5193;51.032;6.356;2024-01-30T00:29:54;6.10;99.90
10296;DHT22;5193;51.032;6.356;2024-01-30T00:32:22;6.10;99.90
10296;DHT22;5193;51.032;6.356;2024-01-30T00:34:49;6.10;99.90
10296;DHT22;5193;51.032;6.356;2024-01-30T00:37:14;6.10;99.90
10296;DHT22;5193;51.032;6.356;2024-01-30T00:39:40;6.10;99.90
10296;DHT22;5193;51.032;6.356;2024-01-30T00:42:05;6.10;99.90
10296;DHT22;5193;51.032;6.356;2024-01-30T00:44:31;6.10;99.90
10296;DHT22;5193;51.032;6.356;2024-01-30T00:47:02;6.00;99.90
10296;DHT22;5193;51.032;6.356;2024-01-30T00:49:28;6.00;99.90
10296;DHT22;5193;51.032;6.356;2024-01-30T00:51:54;6.00;99.90
10296;DHT22;5193;51.032;6.356;2024-01-30T00:54:19;5.90;99.90
10296;DHT22;5193;51.032;6.356;2024-01-30T00:56:45;5.90;99.90
10296;DHT22;5193;51.032;6.356;2024-01-30T00:59:11;6.00;99.90
10296;DHT22;5193;51.032;6.356;2024-01-30T01:01:37;5.90;99.90
10296;DHT22;5193;51.032;6.356;2024-01-30T01:04:03;5.90;99.90
10296;DHT22;5193;51.032;6.356;2024-01-30T01:06:32;5.90;99.90
10296;DHT22;5193;51.032;6.356;2024-01-30T01:08:58;5.80;99.90
10296;DHT22;5193;51.032;6.356;2024-01-30T01:11:23;5.90;99.90
10296;DHT22;5193;51.032;6.356;2024-01-30T01:13:49;5.80;99.90
10296;DHT22;5193;51.032;6.356;2024-01-30T01:16:20;5.80;99.90
10296;DHT22;5193;51.032;6.356;2024-01-30T01:18:45;5.80;99.90
10296;DHT22;5193;51.032;6.356;2024-01-30T01:21:11;5.80;99.90
10296;DHT22;5193;51.032;6.356;2024-01-30T01:23:37;5.70;99.90
10296;DHT22;5193;51.032;6.356;2024-01-30T01:26:02;5.70;99.90
10296;DHT22;5193;51.032;6.356;2024-01-30T01:28:34;5.70;99.90
10296;DHT22;5193;51.032;6.356;2024-01-30T01:31:00;5.70;99.90
10296;DHT22;5193;51.032;6.356;2024-01-30T01:33:36;5.70;99.90
10296;DHT22;5193;51.032;6.356;2024-01-30T01:36:03;5.60;99.90
10296;DHT22;5193;51.032;6.356;2024-01-30T01:38:29;5.70;99.90
10296;DHT22;5193;51.032;6.356;2024-01-30T01:40:54;5.70;99.90
10296;DHT22;5193;51.032;6.356;2024-01-30T01:43:23;5.70;99.90
10296;DHT22;5193;51.032;6.356;2024-01-30T01:45:49;5.70;99.90
10296;DHT22;5193;51.032;6.356;2024-01-30T01:48:14;5.70;99.90
10296;DHT22;5193;51.032;6.356;2024-01-30T01:50:41;5.60;99.90
10296;DHT22;5193;51.032;6.356;2024-01-30T01:53:08;5.70;99.90
10296;DHT22;5193;51.032;6.356;2024-01-30T01:55:37;5.70;99.90
10296;DHT22;5193;51.032;6.356;2024-01-30T01:58:03;5.70;99.90
10296;DHT22;5193;51.032;6.356;2024-01-30T02:00:28;5.70;99.90
10296;DHT22;5193;51.032;6.356;2024-01-30T02:02:54;5.70;99.90
10296;DHT22;5193;51.032;6.356;2024-01-30T02:05:21;5.80;99.90
10296;DHT22;5193;51.032;6.356;2024-01-30T02:07:47;5.80;99.90
10296;DHT22;5193;51.032;6.356;2024-01-30T02:10:18;5.80;99.90
10296;DHT22;5193;51.032;6.356;2024-01-30T02:12:44;5.80;99.90
10296;DHT22;5193;51.032;6.356;2024-01-30T02:15:13;5.90;99.90
10296;DHT22;5193;51.032;6.356;2024-01-30T02:17:39;5.90;99.90
10296;DHT22;5193;51.032;6.356;2024-01-30T02:20:05;6.00;99.90
10296;DHT22;5193;51.032;6.356;2024-01-30T02:22:34;6.10;99.90
10296;DHT22;5193;51.032;6.356;2024-01-30T02:25:02;6.20;99.90
10296;DHT22;5193;51.032;6.356;2024-01-30T02:27:28;6.30;99.90
10296;DHT22;5193;51.032;6.356;2024-01-30T02:29:53;6.40;99.90
10296;DHT22;5193;51.032;6.356;2024-01-30T02:32:19;6.50;99.90
10296;DHT22;5193;51.032;6.356;2024-01-30T02:34:44;6.50;99.90
10296;DHT22;5193;51.032;6.356;2024-01-30T02:37:13;6.50;99.90
10296;DHT22;5193;51.032;6.356;2024-01-30T02:39:38;6.60;99.90
10296;DHT22;5193;51.032;6.356;2024-01-30T02:42:04;6.60;99.90
10296;DHT22;5193;51.032;6.356;2024-01-30T02:44:30;6.60;99.90
10296;DHT22;5193;51.032;6.356;2024-01-30T02:46:56;6.60;99.90
10296;DHT22;5193;51.032;6.356;2024-01-30T02:49:21;6.70;99.90
10296;DHT22;5193;51.032;6.356;2024-01-30T02:51:51;6.70;99.90
10296;DHT22;5193;51.032;6.356;2024-01-30T02:54:20;6.70;99.90
10296;DHT22;5193;51.032;6.356;2024-01-30T02:56:46;6.70;99.90
10296;DHT22;5193;51.032;6.356;2024-01-30T02:59:11;6.70;99.90
10296;DHT22;5193;51.032;6.356;2024-01-30T03:01:47;6.80;99.90
10296;DHT22;5193;51.032;6.356;2024-01-30T03:04:13;6.80;99.90
10296;DHT22;5193;51.032;6.356;2024-01-30T03:06:44;6.80;99.90
10296;DHT22;5193;51.032;6.356;2024-01-30T03:09:09;6.80;99.90
10296;DHT22;5193;51.032;6.356;2024-01-30T03:11:35;6.80;99.90
10296;DHT22;5193;51.032;6.356;2024-01-30T03:14:00;6.80;99.90
10296;DHT22;5193;51.032;6.356;2024-01-30T03:16:26;6.70;99.90
10296;DHT22;5193;51.032;6.356;2024-01-30T03:18:51;6.70;99.90
10296;DHT22;5193;51.032;6.356;2024-01-30T03:21:17;6.60;99.90
10296;DHT22;5193;51.032;6.356;2024-01-30T03:23:43;6.60;99.90
10296;DHT22;5193;51.032;6.356;2024-01-30T03:26:08;6.50;99.90
10296;DHT22;5193;51.032;6.356;2024-01-30T03:28:34;6.50;99.90
10296;DHT22;5193;51.032;6.356;2024-01-30T03:31:00;6.50;99.90
10296;DHT22;5193;51.032;6.356;2024-01-30T03:33:29;6.50;99.90
10296;DHT22;5193;51.032;6.356;2024-01-30T03:35:54;6.50;99.90
10296;DHT22;5193;51.032;6.356;2024-01-30T03:38:20;6.40;99.90
10296;DHT22;5193;51.032;6.356;2024-01-30T03:40:45;6.40;99.90
10296;DHT22;5193;51.032;6.356;2024-01-30T03:43:11;6.30;99.90
10296;DHT22;5193;51.032;6.356;2024-01-30T03:45:36;6.20;99.90
10296;DHT22;5193;51.032;6.356;2024-01-30T03:48:02;6.20;99.90
10296;DHT22;5193;51.032;6.356;2024-01-30T03:50:28;6.20;99.90
10296;DHT22;5193;51.032;6.356;2024-01-30T03:52:53;6.10;99.90
10296;DHT22;5193;51.032;6.356;2024-01-30T03:55:19;6.10;99.90
10296;DHT22;5193;51.032;6.356;2024-01-30T03:57:44;6.00;99.90
10296;DHT22;5193;51.032;6.356;2024-01-30T04:00:10;6.00;99.90
10296;DHT22;5193;51.032;6.356;2024-01-30T04:02:36;6.00;99.90
10296;DHT22;5193;51.032;6.356;2024-01-30T04:05:04;6.00;99.90
10296;DHT22;5193;51.032;6.356;2024-01-30T04:07:29;5.90;99.90
10296;DHT22;5193;51.032;6.356;2024-01-30T04:10:01;5.90;99.90
10296;DHT22;5193;51.032;6.356;2024-01-30T04:12:26;5.80;99.90
10296;DHT22;5193;51.032;6.356;2024-01-30T04:14:53;5.80;99.90
10296;DHT22;5193;51.032;6.356;2024-01-30T04:17:23;5.80;99.90
10296;DHT22;5193;51.032;6.356;2024-01-30T04:19:49;5.80;99.90
10296;DHT22;5193;51.032;6.356;2024-01-30T04:22:14;5.80;99.90
10296;DHT22;5193;51.032;6.356;2024-01-30T04:24:40;5.80;99.90
10296;DHT22;5193;51.032;6.356;2024-01-30T04:27:06;5.80;99.90
10296;DHT22;5193;51.032;6.356;2024-01-30T04:29:31;5.90;99.90
10296;DHT22;5193;51.032;6.356;2024-01-30T04:32:00;5.90;99.90
10296;DHT22;5193;51.032;6.356;2024-01-30T04:34:26;6.00;99.90
10296;DHT22;5193;51.032;6.356;2024-01-30T04:36:52;6.10;99.90
10296;DHT22;5193;51.032;6.356;2024-01-30T04:39:17;6.10;99.90
10296;DHT22;5193;51.032;6.356;2024-01-30T04:41:43;6.20;99.90
10296;DHT22;5193;51.032;6.356;2024-01-30T04:44:08;6.20;99.90
10296;DHT22;5193;51.032;6.356;2024-01-30T04:46:34;6.20;99.90
10296;DHT22;5193;51.032;6.356;2024-01-30T04:49:03;6.30;99.90
10296;DHT22;5193;51.032;6.356;2024-01-30T04:51:29;6.20;99.90
10296;DHT22;5193;51.032;6.356;2024-01-30T04:53:55;6.20;99.90
10296;DHT22;5193;51.032;6.356;2024-01-30T04:56:21;6.20;99.90
10296;DHT22;5193;51.032;6.356;2024-01-30T04:58:46;6.20;99.90
10296;DHT22;5193;51.032;6.356;2024-01-30T05:01:18;6.20;99.90
10296;DHT22;5193;51.032;6.356;2024-01-30T05:03:44;6.20;99.90
10296;DHT22;5193;51.032;6.356;2024-01-30T05:06:09;6.20;99.90
10296;DHT22;5193;51.032;6.356;2024-01-30T05:11:57;6.10;99.90
10296;DHT22;5193;51.032;6.356;2024-01-30T05:14:23;6.00;99.90
10296;DHT22;5193;51.032;6.356;2024-01-30T05:16:49;6.00;99.90
10296;DHT22;5193;51.032;6.356;2024-01-30T05:19:15;5.90;99.90
10296;DHT22;5193;51.032;6.356;2024-01-30T05:21:41;5.90;99.90
10296;DHT22;5193;51.032;6.356;2024-01-30T05:24:10;5.90;99.90
10296;DHT22;5193;51.032;6.356;2024-01-30T05:26:36;5.80;99.90
10296;DHT22;5193;51.032;6.356;2024-01-30T05:29:02;5.80;99.90
10296;DHT22;5193;51.032;6.356;2024-01-30T05:31:27;5.80;99.90
10296;DHT22;5193;51.032;6.356;2024-01-30T05:33:54;5.90;99.90
10296;DHT22;5193;51.032;6.356;2024-01-30T05:36:19;5.90;99.90
10296;DHT22;5193;51.032;6.356;2024-01-30T05:38:46;6.00;99.90
10296;DHT22;5193;51.032;6.356;2024-01-30T05:41:11;6.00;99.90
10296;DHT22;5193;51.032;6.356;2024-01-30T05:43:37;6.00;99.90
10296;DHT22;5193;51.032;6.356;2024-01-30T05:46:04;5.90;99.90
10296;DHT22;5193;51.032;6.356;2024-01-30T05:48:30;5.90;99.90
10296;DHT22;5193;51.032;6.356;2024-01-30T05:51:02;5.90;99.90
10296;DHT22;5193;51.032;6.356;2024-01-30T05:53:29;5.80;99.90
10296;DHT22;5193;51.032;6.356;2024-01-30T05:55:54;5.80;99.90
10296;DHT22;5193;51.032;6.356;2024-01-30T05:58:20;5.80;99.90
10296;DHT22;5193;51.032;6.356;2024-01-30T06:00:46;5.80;99.90
10296;DHT22;5193;51.032;6.356;2024-01-30T06:03:12;5.90;99.90
10296;DHT22;5193;51.032;6.356;2024-01-30T06:05:40;5.90;99.90
10296;DHT22;5193;51.032;6.356;2024-01-30T06:08:09;5.90;99.90
10296;DHT22;5193;51.032;6.356;2024-01-30T06:10:37;6.00;99.90
10296;DHT22;5193;51.032;6.356;2024-01-30T06:13:04;6.10;99.90
10296;DHT22;5193;51.032;6.356;2024-01-30T06:15:29;6.20;99.90
10296;DHT22;5193;51.032;6.356;2024-01-30T06:17:55;6.40;99.90
10296;DHT22;5193;51.032;6.356;2024-01-30T06:20:22;6.50;99.90
10296;DHT22;5193;51.032;6.356;2024-01-30T06:22:48;6.50;99.90
10296;DHT22;5193;51.032;6.356;2024-01-30T06:25:13;6.60;99.90
10296;DHT22;5193;51.032;6.356;2024-01-30T06:27:42;6.60;99.90
10296;DHT22;5193;51.032;6.356;2024-01-30T06:30:08;6.60;99.90
10296;DHT22;5193;51.032;6.356;2024-01-30T06:32:35;6.50;99.90
10296;DHT22;5193;51.032;6.356;2024-01-30T06:35:01;6.40;99.90
10296;DHT22;5193;51.032;6.356;2024-01-30T06:37:27;6.30;99.90
10296;DHT22;5193;51.032;6.356;2024-01-30T06:39:53;6.30;99.90
10296;DHT22;5193;51.032;6.356;2024-01-30T06:42:19;6.20;99.90
10296;DHT22;5193;51.032;6.356;2024-01-30T06:44:44;6.10;99.90
10296;DHT22;5193;51.032;6.356;2024-01-30T06:47:10;6.10;99.90
10296;DHT22;5193;51.032;6.356;2024-01-30T06:49:36;6.10;99.90
10296;DHT22;5193;51.032;6.356;2024-01-30T06:52:07;6.00;99.90
10296;DHT22;5193;51.032;6.356;2024-01-30T06:54:34;6.00;99.90
10296;DHT22;5193;51.032;6.356;2024-01-30T06:57:00;6.00;99.90
10296;DHT22;5193;51.032;6.356;2024-01-30T06:59:25;6.00;99.90
10296;DHT22;5193;51.032;6.356;2024-01-30T07:01:54;5.90;99.90
10296;DHT22;5193;51.032;6.356;2024-01-30T07:04:23;5.90;99.90
10296;DHT22;5193;51.032;6.356;2024-01-30T07:06:48;5.90;99.90
10296;DHT22;5193;51.032;6.356;2024-01-30T07:09:14;5.90;99.90
10296;DHT22;5193;51.032;6.356;2024-01-30T07:11:39;6.00;99.90
10296;DHT22;5193;51.032;6.356;2024-01-30T07:14:05;6.00;99.90
10296;DHT22;5193;51.032;6.356;2024-01-30T07:16:32;6.00;99.90
10296;DHT22;5193;51.032;6.356;2024-01-30T07:18:57;6.10;99.90
10296;DHT22;5193;51.032;6.356;2024-01-30T07:21:25;6.10;99.90
10296;DHT22;5193;51.032;6.356;2024-01-30T07:23:54;6.20;99.90
10296;DHT22;5193;51.032;6.356;2024-01-30T07:26:20;6.20;99.90
10296;DHT22;5193;51.032;6.356;2024-01-30T07:28:46;6.10;99.90
10296;DHT22;5193;51.032;6.356;2024-01-30T07:31:15;6.20;99.90
10296;DHT22;5193;51.032;6.356;2024-01-30T07:33:40;6.20;99.90
10296;DHT22;5193;51.032;6.356;2024-01-30T07:36:06;6.20;99.90
10296;DHT22;5193;51.032;6.356;2024-01-30T07:38:32;6.10;99.90
10296;DHT22;5193;51.032;6.356;2024-01-30T07:40:57;6.10;99.90
10296;DHT22;5193;51.032;6.356;2024-01-30T07:43:23;6.10;99.90
10296;DHT22;5193;51.032;6.356;2024-01-30T07:45:53;6.10;99.90
10296;DHT22;5193;51.032;6.356;2024-01-30T07:48:21;6.20;99.90
10296;DHT22;5193;51.032;6.356;2024-01-30T07:50:47;6.20;99.90
10296;DHT22;5193;51.032;6.356;2024-01-30T07:53:12;6.20;99.90
10296;DHT22;5193;51.032;6.356;2024-01-30T07:55:38;6.20;99.90
10296;DHT22;5193;51.032;6.356;2024-01-30T07:58:04;6.20;99.90
10296;DHT22;5193;51.032;6.356;2024-01-30T08:00:30;6.30;99.90
10296;DHT22;5193;51.032;6.356;2024-01-30T08:02:55;6.30;99.90
10296;DHT22;5193;51.032;6.356;2024-01-30T08:05:25;6.40;99.90
10296;DHT22;5193;51.032;6.356;2024-01-30T08:07:52;6.40;99.90
10296;DHT22;5193;51.032;6.356;2024-01-30T08:10:17;6.40;99.90
10296;DHT22;5193;51.032;6.356;2024-01-30T08:12:48;6.50;99.90
10296;DHT22;5193;51.032;6.356;2024-01-30T08:15:20;6.50;99.90
10296;DHT22;5193;51.032;6.356;2024-01-30T08:17:46;6.50;99.90
10296;DHT22;5193;51.032;6.356;2024-01-30T08:20:13;6.60;99.90
10296;DHT22;5193;51.032;6.356;2024-01-30T08:22:39;6.60;99.90
10296;DHT22;5193;51.032;6.356;2024-01-30T08:25:06;6.60;99.90
10296;DHT22;5193;51.032;6.356;2024-01-30T08:27:32;6.60;99.90
10296;DHT22;5193;51.032;6.356;2024-01-30T08:29:57;6.70;99.90
10296;DHT22;5193;51.032;6.356;2024-01-30T08:32:23;6.70;99.90
10296;DHT22;5193;51.032;6.356;2024-01-30T08:34:49;6.70;99.90
10296;DHT22;5193;51.032;6.356;2024-01-30T08:37:15;6.70;99.90
10296;DHT22;5193;51.032;6.356;2024-01-30T08:39:42;6.70;99.90
10296;DHT22;5193;51.032;6.356;2024-01-30T08:42:11;6.70;99.90
10296;DHT22;5193;51.032;6.356;2024-01-30T08:44:37;6.70;99.90
10296;DHT22;5193;51.032;6.356;2024-01-30T08:47:04;6.70;99.90
10296;DHT22;5193;51.032;6.356;2024-01-30T08:49:30;6.80;99.90
10296;DHT22;5193;51.032;6.356;2024-01-30T08:51:55;6.80;99.90
10296;DHT22;5193;51.032;6.356;2024-01-30T08:54:22;6.80;99.90
10296;DHT22;5193;51.032;6.356;2024-01-30T08:56:48;6.90;99.90
10296;DHT22;5193;51.032;6.356;2024-01-30T08:59:14;6.90;99.90
10296;DHT22;5193;51.032;6.356;2024-01-30T09:01:40;6.90;99.90
10296;DHT22;5193;51.032;6.356;2024-01-30T09:04:06;6.90;99.90
10296;DHT22;5193;51.032;6.356;2024-01-30T09:06:31;7.00;99.90
10296;DHT22;5193;51.032;6.356;2024-01-30T09:09:00;7.00;99.90
10296;DHT22;5193;51.032;6.356;2024-01-30T09:11:29;7.00;99.90
10296;DHT22;5193;51.032;6.356;2024-01-30T09:13:54;7.10;99.90
10296;DHT22;5193;51.032;6.356;2024-01-30T09:16:20;7.10;99.90
10296;DHT22;5193;51.032;6.356;2024-01-30T09:18:45;7.10;99.90
10296;DHT22;5193;51.032;6.356;2024-01-30T09:21:11;7.20;99.90
10296;DHT22;5193;51.032;6.356;2024-01-30T09:23:40;7.20;99.90
10296;DHT22;5193;51.032;6.356;2024-01-30T09:26:05;7.20;99.90
10296;DHT22;5193;51.032;6.356;2024-01-30T09:28:31;7.30;99.90
10296;DHT22;5193;51.032;6.356;2024-01-30T09:30:56;7.30;99.90
10296;DHT22;5193;51.032;6.356;2024-01-30T09:33:22;7.40;99.90
10296;DHT22;5193;51.032;6.356;2024-01-30T09:35:47;7.50;99.90
10296;DHT22;5193;51.032;6.356;2024-01-30T09:38:16;7.60;99.90
10296;DHT22;5193;51.032;6.356;2024-01-30T09:40:42;7.70;99.90
10296;DHT22;5193;51.032;6.356;2024-01-30T09:43:08;7.90;99.90
10296;DHT22;5193;51.032;6.356;2024-01-30T09:45:35;8.00;99.90
10296;DHT22;5193;51.032;6.356;2024-01-30T09:48:01;8.30;99.90
10296;DHT22;5193;51.032;6.356;2024-01-30T09:50:27;8.50;99.90
10296;DHT22;5193;51.032;6.356;2024-01-30T09:52:55;8.70;99.90
10296;DHT22;5193;51.032;6.356;2024-01-30T09:55:21;8.90;99.90
10296;DHT22;5193;51.032;6.356;2024-01-30T09:57:47;9.10;99.90
10296;DHT22;5193;51.032;6.356;2024-01-30T10:00:13;9.30;99.90
10296;DHT22;5193;51.032;6.356;2024-01-30T10:02:39;9.40;99.90
10296;DHT22;5193;51.032;6.356;2024-01-30T10:05:06;9.50;99.90
10296;DHT22;5193;51.032;6.356;2024-01-30T10:07:33;9.60;99.90
10296;DHT22;5193;51.032;6.356;2024-01-30T10:09:59;9.60;99.90
10296;DHT22;5193;51.032;6.356;2024-01-30T10:12:29;9.70;99.90
10296;DHT22;5193;51.032;6.356;2024-01-30T10:14:56;9.70;99.90
10296;DHT22;5193;51.032;6.356;2024-01-30T10:17:25;9.80;99.90
10296;DHT22;5193;51.032;6.356;2024-01-30T10:20:04;9.80;99.90
10296;DHT22;5193;51.032;6.356;2024-01-30T10:22:30;9.90;99.90
10296;DHT22;5193;51.032;6.356;2024-01-30T10:24:56;10.00;99.90
10296;DHT22;5193;51.032;6.356;2024-01-30T10:27:28;10.10;99.90
10296;DHT22;5193;51.032;6.356;2024-01-30T10:29:55;10.20;99.90
10296;DHT22;5193;51.032;6.356;2024-01-30T10:32:23;10.30;99.90
10296;DHT22;5193;51.032;6.356;2024-01-30T10:34:52;10.40;99.90
10296;DHT22;5193;51.032;6.356;2024-01-30T10:37:19;10.50;99.90
10296;DHT22;5193;51.032;6.356;2024-01-30T10:43:10;10.70;99.90
10296;DHT22;5193;51.032;6.356;2024-01-30T10:45:39;10.70;99.90
10296;DHT22;5193;51.032;6.356;2024-01-30T10:48:06;10.80;99.90
10296;DHT22;5193;51.032;6.356;2024-01-30T10:50:34;10.90;99.90
10296;DHT22;5193;51.032;6.356;2024-01-30T10:53:01;11.00;99.90
10296;DHT22;5193;51.032;6.356;2024-01-30T10:55:37;11.00;99.90
10296;DHT22;5193;51.032;6.356;2024-01-30T10:58:04;11.10;99.90
10296;DHT22;5193;51.032;6.356;2024-01-30T11:00:30;11.10;99.90
10296;DHT22;5193;51.032;6.356;2024-01-30T11:02:58;11.20;99.90
10296;DHT22;5193;51.032;6.356;2024-01-30T11:05:25;11.20;99.90
10296;DHT22;5193;51.032;6.356;2024-01-30T11:07:57;11.20;99.90
10296;DHT22;5193;51.032;6.356;2024-01-30T11:10:25;11.30;99.90
10296;DHT22;5193;51.032;6.356;2024-01-30T11:12:50;11.20;99.90
10296;DHT22;5193;51.032;6.356;2024-01-30T11:15:17;11.30;99.90
10296;DHT22;5193;51.032;6.356;2024-01-30T11:17:50;11.30;99.90
10296;DHT22;5193;51.032;6.356;2024-01-30T11:20:26;11.40;99.90
10296;DHT22;5193;51.032;6.356;2024-01-30T11:22:54;11.40;99.90
10296;DHT22;5193;51.032;6.356;2024-01-30T11:25:21;11.40;99.90
10296;DHT22;5193;51.032;6.356;2024-01-30T11:27:50;11.40;99.90
10296;DHT22;5193;51.032;6.356;2024-01-30T11:33:08;11.40;99.90
10296;DHT22;5193;51.032;6.356;2024-01-30T11:35:41;11.50;99.90
10296;DHT22;5193;51.032;6.356;2024-01-30T11:38:08;11.50;99.90
10296;DHT22;5193;51.032;6.356;2024-01-30T11:40:36;11.50;99.90
10296;DHT22;5193;51.032;6.356;2024-01-30T11:43:05;11.40;99.90
10296;DHT22;5193;51.032;6.356;2024-01-30T11:45:35;11.50;99.90
10296;DHT22;5193;51.032;6.356;2024-01-30T11:48:02;11.50;99.90
10296;DHT22;5193;51.032;6.356;2024-01-30T11:50:31;11.50;99.90
10296;DHT22;5193;51.032;6.356;2024-01-30T11:53:00;11.50;99.90
10296;DHT22;5193;51.032;6.356;2024-01-30T11:55:26;11.60;99.90
10296;DHT22;5193;51.032;6.356;2024-01-30T11:57:55;11.60;99.90
10296;DHT22;5193;51.032;6.356;2024-01-30T12:00:20;11.60;99.90
10296;DHT22;5193;51.032;6.356;2024-01-30T12:05:56;11.50;99.90
10296;DHT22;5193;51.032;6.356;2024-01-30T12:08:24;11.50;99.90
10296;DHT22;5193;51.032;6.356;2024-01-30T12:10:57;11.60;99.90
10296;DHT22;5193;51.032;6.356;2024-01-30T12:13:23;11.60;99.90
10296;DHT22;5193;51.032;6.356;2024-01-30T12:15:49;11.60;99.90
10296;DHT22;5193;51.032;6.356;2024-01-30T12:18:18;11.60;99.90
10296;DHT22;5193;51.032;6.356;2024-01-30T12:20:58;11.60;99.90
10296;DHT22;5193;51.032;6.356;2024-01-30T12:23:29;11.70;99.90
10296;DHT22;5193;51.032;6.356;2024-01-30T12:25:55;11.70;99.90
10296;DHT22;5193;51.032;6.356;2024-01-30T12:28:22;11.70;99.90
10296;DHT22;5193;51.032;6.356;2024-01-30T12:30:47;11.70;99.90
10296;DHT22;5193;51.032;6.356;2024-01-30T12:33:17;11.70;99.90
10296;DHT22;5193;51.032;6.356;2024-01-30T12:35:47;11.80;99.90
10296;DHT22;5193;51.032;6.356;2024-01-30T12:38:14;11.80;99.90
10296;DHT22;5193;51.032;6.356;2024-01-30T12:40:40;11.80;99.90
10296;DHT22;5193;51.032;6.356;2024-01-30T12:43:05;11.80;99.90
10296;DHT22;5193;51.032;6.356;2024-01-30T12:45:31;11.80;99.90
10296;DHT22;5193;51.032;6.356;2024-01-30T12:47:59;11.80;99.90
10296;DHT22;5193;51.032;6.356;2024-01-30T12:50:25;11.80;99.90
10296;DHT22;5193;51.032;6.356;2024-01-30T12:52:54;11.80;99.90
10296;DHT22;5193;51.032;6.356;2024-01-30T12:55:19;11.80;99.90
10296;DHT22;5193;51.032;6.356;2024-01-30T12:57:45;11.80;99.90
10296;DHT22;5193;51.032;6.356;2024-01-30T13:00:11;11.80;99.90
10296;DHT22;5193;51.032;6.356;2024-01-30T13:02:37;11.80;99.90
10296;DHT22;5193;51.032;6.356;2024-01-30T13:05:03;11.80;99.90
10296;DHT22;5193;51.032;6.356;2024-01-30T13:07:30;11.80;99.90
10296;DHT22;5193;51.032;6.356;2024-01-30T13:09:56;11.80;99.90
10296;DHT22;5193;51.032;6.356;2024-01-30T13:12:27;11.80;99.90
10296;DHT22;5193;51.032;6.356;2024-01-30T13:15:06;11.70;99.90
10296;DHT22;5193;51.032;6.356;2024-01-30T13:17:33;11.70;99.90
10296;DHT22;5193;51.032;6.356;2024-01-30T13:19:58;11.70;99.90
10296;DHT22;5193;51.032;6.356;2024-01-30T13:22:24;11.70;99.90
10296;DHT22;5193;51.032;6.356;2024-01-30T13:24:50;11.70;99.90
10296;DHT22;5193;51.032;6.356;2024-01-30T13:27:16;11.70;99.90
10296;DHT22;5193;51.032;6.356;2024-01-30T13:29:42;11.70;99.90
10296;DHT22;5193;51.032;6.356;2024-01-30T13:32:07;11.70;99.90
10296;DHT22;5193;51.032;6.356;2024-01-30T13:34:33;11.70;99.90
10296;DHT22;5193;51.032;6.356;2024-01-30T13:36:59;11.70;99.90
10296;DHT22;5193;51.032;6.356;2024-01-30T13:39:25;11.70;99.90
10296;DHT22;5193;51.032;6.356;2024-01-30T13:41:50;11.70;99.90
10296;DHT22;5193;51.032;6.356;2024-01-30T13:44:19;11.80;99.90
10296;DHT22;5193;51.032;6.356;2024-01-30T13:46:46;11.70;99.90
10296;DHT22;5193;51.032;6.356;2024-01-30T13:49:12;11.70;99.90
10296;DHT22;5193;51.032;6.356;2024-01-30T13:51:38;11.70;99.90
10296;DHT22;5193;51.032;6.356;2024-01-30T13:54:03;11.70;99.90
10296;DHT22;5193;51.032;6.356;2024-01-30T13:56:32;11.70;99.90
10296;DHT22;5193;51.032;6.356;2024-01-30T13:58:57;11.70;99.90
10296;DHT22;5193;51.032;6.356;2024-01-30T14:01:26;11.70;99.90
10296;DHT22;5193;51.032;6.356;2024-01-30T14:03:52;11.70;99.90
10296;DHT22;5193;51.032;6.356;2024-01-30T14:06:18;11.70;99.90
10296;DHT22;5193;51.032;6.356;2024-01-30T14:08:43;11.70;99.90
10296;DHT22;5193;51.032;6.356;2024-01-30T14:11:21;11.70;99.90
10296;DHT22;5193;51.032;6.356;2024-01-30T14:13:47;11.70;99.90
10296;DHT22;5193;51.032;6.356;2024-01-30T14:16:12;11.70;99.90
10296;DHT22;5193;51.032;6.356;2024-01-30T14:18:38;11.70;99.90
10296;DHT22;5193;51.032;6.356;2024-01-30T14:21:04;11.60;99.90
10296;DHT22;5193;51.032;6.356;2024-01-30T14:23:29;11.70;99.90
10296;DHT22;5193;51.032;6.356;2024-01-30T14:25:55;11.60;99.90
10296;DHT22;5193;51.032;6.356;2024-01-30T14:28:24;11.50;99.90
10296;DHT22;5193;51.032;6.356;2024-01-30T14:30:49;11.50;99.90
10296;DHT22;5193;51.032;6.356;2024-01-30T14:33:15;11.50;99.90
10296;DHT22;5193;51.032;6.356;2024-01-30T14:35:40;11.50;99.90
10296;DHT22;5193;51.032;6.356;2024-01-30T14:38:06;11.40;99.90
10296;DHT22;5193;51.032;6.356;2024-01-30T14:40:32;11.40;99.90
10296;DHT22;5193;51.032;6.356;2024-01-30T14:42:58;11.40;99.90
10296;DHT22;5193;51.032;6.356;2024-01-30T14:45:24;11.40;99.90
10296;DHT22;5193;51.032;6.356;2024-01-30T14:47:52;11.40;99.90
10296;DHT22;5193;51.032;6.356;2024-01-30T14:50:18;11.30;99.90
10296;DHT22;5193;51.032;6.356;2024-01-30T14:52:44;11.30;99.90
10296;DHT22;5193;51.032;6.356;2024-01-30T14:55:19;11.30;99.90
10296;DHT22;5193;51.032;6.356;2024-01-30T14:57:45;11.20;99.90
10296;DHT22;5193;51.032;6.356;2024-01-30T15:00:12;11.20;99.90
10296;DHT22;5193;51.032;6.356;2024-01-30T15:02:37;11.10;99.90
10296;DHT22;5193;51.032;6.356;2024-01-30T15:05:04;11.10;99.90
10296;DHT22;5193;51.032;6.356;2024-01-30T15:07:29;11.00;99.90
10296;DHT22;5193;51.032;6.356;2024-01-30T15:09:55;11.00;99.90
10296;DHT22;5193;51.032;6.356;2024-01-30T15:12:20;10.90;99.90
10296;DHT22;5193;51.032;6.356;2024-01-30T15:14:46;10.90;99.90
10296;DHT22;5193;51.032;6.356;2024-01-30T15:17:19;10.90;99.90
10296;DHT22;5193;51.032;6.356;2024-01-30T15:19:47;10.80;99.90
10296;DHT22;5193;51.032;6.356;2024-01-30T15:22:15;10.80;99.90
10296;DHT22;5193;51.032;6.356;2024-01-30T15:24:41;10.80;99.90
10296;DHT22;5193;51.032;6.356;2024-01-30T15:27:07;10.70;99.90
10296;DHT22;5193;51.032;6.356;2024-01-30T15:29:33;10.70;99.90
10296;DHT22;5193;51.032;6.356;2024-01-30T15:31:58;10.60;99.90
10296;DHT22;5193;51.032;6.356;2024-01-30T15:34:24;10.60;99.90
10296;DHT22;5193;51.032;6.356;2024-01-30T15:36:52;10.50;99.90
10296;DHT22;5193;51.032;6.356;2024-01-30T15:39:18;10.50;99.90
10296;DHT22;5193;51.032;6.356;2024-01-30T15:41:44;10.50;99.90
10296;DHT22;5193;51.032;6.356;2024-01-30T15:44:10;10.40;99.90
10296;DHT22;5193;51.032;6.356;2024-01-30T15:46:36;10.40;99.90
10296;DHT22;5193;51.032;6.356;2024-01-30T15:49:04;10.40;99.90
10296;DHT22;5193;51.032;6.356;2024-01-30T15:51:30;10.40;99.90
10296;DHT22;5193;51.032;6.356;2024-01-30T15:53:56;10.30;99.90
10296;DHT22;5193;51.032;6.356;2024-01-30T15:56:22;10.30;99.90
10296;DHT22;5193;51.032;6.356;2024-01-30T15:58:48;10.30;99.90
10296;DHT22;5193;51.032;6.356;2024-01-30T16:01:15;10.20;99.90
10296;DHT22;5193;51.032;6.356;2024-01-30T16:03:43;10.20;99.90
10296;DHT22;5193;51.032;6.356;2024-01-30T16:06:12;10.20;99.90